Time;durP1;ratioP1;P1;durP2;ratioP2;P2;SDS_P1;SDS_P2;PMS_P1;PMS_P2;Temp;Humidity;BMP_temperature;BMP_pressure;BME280_temperature;BME280_humidity;BME280_pressure;Samples;Min_cycle;Max_cycle;Signal;HPM_P1;HPM_P2
2022/06/07 00:00:32;;;;;;;10.17;7.93;;;15.50;99.90;;;;;;5080013;28;20487;-81
2022/06/07 00:02:59;;;;;;;10.43;8.80;;;15.40;99.90;;;;;;5087412;28;20509;-79
2022/06/07 00:05:26;;;;;;;9.47;7.40;;;15.40;99.90;;;;;;5100772;28;20480;-78
2022/06/07 00:07:54;;;;;;;11.27;8.60;;;15.40;99.90;;;;;;5100597;28;20453;-79
2022/06/07 00:10:21;;;;;;;8.93;8.03;;;15.30;99.90;;;;;;5083326;28;20455;-80
2022/06/07 00:12:49;;;;;;;10.67;8.20;;;15.30;99.90;;;;;;5099663;28;20499;-81
2022/06/07 00:15:17;;;;;;;9.63;8.47;;;15.20;99.90;;;;;;5100240;28;20492;-79
2022/06/07 00:17:44;;;;;;;12.50;7.73;;;15.20;99.90;;;;;;5086225;28;20504;-78
2022/06/07 00:20:13;;;;;;;10.00;7.93;;;15.20;99.90;;;;;;5081344;28;20856;-79
2022/06/07 00:22:41;;;;;;;12.90;8.73;;;15.20;99.90;;;;;;5099897;28;20465;-79
2022/06/07 00:25:10;;;;;;;10.30;7.90;;;15.20;99.90;;;;;;5100460;28;20446;-79
2022/06/07 00:27:37;;;;;;;8.73;7.80;;;15.20;99.90;;;;;;5100071;28;20442;-80
2022/06/07 00:30:07;;;;;;;9.10;7.27;;;15.30;99.90;;;;;;5100342;28;20459;-79
2022/06/07 00:32:35;;;;;;;9.30;8.30;;;15.30;99.90;;;;;;5099651;28;20486;-79
2022/06/07 00:35:02;;;;;;;10.30;8.40;;;15.30;99.90;;;;;;5100084;28;20474;-79
2022/06/07 00:37:29;;;;;;;9.93;8.63;;;15.30;99.90;;;;;;5099860;28;20448;-79
2022/06/07 00:39:56;;;;;;;12.23;8.40;;;15.30;99.90;;;;;;5099924;28;20446;-79
2022/06/07 00:42:23;;;;;;;8.83;7.93;;;15.30;99.90;;;;;;5098924;28;20578;-79
2022/06/07 00:44:50;;;;;;;9.10;7.43;;;15.20;99.90;;;;;;5099092;28;20514;-80
2022/06/07 00:47:21;;;;;;;9.60;8.57;;;15.20;99.90;;;;;;5099344;28;20532;-79
2022/06/07 00:49:51;;;;;;;8.93;8.03;;;15.20;99.90;;;;;;5098742;28;20449;-79
2022/06/07 00:52:20;;;;;;;9.07;8.17;;;15.20;99.90;;;;;;5099674;28;20469;-79
2022/06/07 00:54:47;;;;;;;9.03;8.10;;;15.10;99.90;;;;;;5099048;28;20462;-79
2022/06/07 00:57:14;;;;;;;9.40;7.60;;;15.00;99.90;;;;;;5099828;28;20529;-78
2022/06/07 00:59:41;;;;;;;11.50;8.10;;;14.90;99.90;;;;;;5099052;28;20553;-80
2022/06/07 01:02:08;;;;;;;9.60;8.13;;;14.90;99.90;;;;;;5099225;28;20489;-79
2022/06/07 01:04:37;;;;;;;8.77;7.73;;;14.90;99.90;;;;;;5098739;28;20455;-80
2022/06/07 01:12:33;;;;;;;11.10;7.70;;;14.70;99.90;;;;;;5099967;28;20549;-80
2022/06/07 01:15:01;;;;;;;11.10;8.40;;;14.70;99.90;;;;;;5099870;28;20543;-79
2022/06/07 01:17:27;;;;;;;14.30;8.23;;;14.70;99.90;;;;;;5099939;28;20553;-80
2022/06/07 01:19:56;;;;;;;7.60;6.80;;;14.70;99.90;;;;;;5100441;28;20550;-80
2022/06/07 01:22:24;;;;;;;9.77;7.67;;;14.60;99.90;;;;;;5099394;28;20511;-80
2022/06/07 01:24:52;;;;;;;8.47;7.33;;;14.60;99.90;;;;;;5099127;28;20957;-80
2022/06/07 01:27:19;;;;;;;9.30;7.80;;;14.50;99.90;;;;;;5098390;28;20459;-81
2022/06/07 01:29:45;;;;;;;8.40;6.87;;;14.50;99.90;;;;;;5099227;28;20465;-80
2022/06/07 01:32:13;;;;;;;9.57;7.03;;;14.50;99.90;;;;;;5099778;28;20477;-80
2022/06/07 01:34:42;;;;;;;10.80;7.57;;;14.50;99.90;;;;;;5099806;28;20533;-82
2022/06/07 01:37:10;;;;;;;11.67;6.57;;;14.40;99.90;;;;;;5099664;28;20515;-80
2022/06/07 01:42:23;;;;;;;8.70;6.70;;;14.30;99.90;;;;;;5100387;28;20485;-78
2022/06/07 01:44:50;;;;;;;10.13;5.73;;;14.30;99.90;;;;;;5098388;28;20515;-79
2022/06/07 01:47:21;;;;;;;9.67;6.17;;;14.30;99.90;;;;;;5098078;28;20438;-79
2022/06/07 01:49:48;;;;;;;6.30;5.17;;;14.30;99.90;;;;;;5098266;28;20446;-79
2022/06/07 01:52:17;;;;;;;7.50;5.13;;;14.20;99.90;;;;;;5085748;28;20555;-80
2022/06/07 01:54:46;;;;;;;6.60;5.60;;;14.20;99.90;;;;;;5077885;28;20486;-79
2022/06/07 01:57:13;;;;;;;8.73;5.10;;;14.30;99.90;;;;;;5077929;28;20483;-80
2022/06/07 01:59:40;;;;;;;8.70;5.10;;;14.30;99.90;;;;;;5078055;28;20513;-79
2022/06/07 02:02:08;;;;;;;6.83;4.73;;;14.20;99.90;;;;;;5077766;28;20556;-79
2022/06/07 02:04:37;;;;;;;9.53;5.10;;;14.30;99.90;;;;;;5078125;28;20426;-81
2022/06/07 02:07:04;;;;;;;7.10;3.80;;;14.20;99.90;;;;;;5078734;28;20505;-80
2022/06/07 02:09:31;;;;;;;7.60;4.90;;;14.20;99.90;;;;;;5078232;28;20447;-79
2022/06/07 02:12:00;;;;;;;7.47;4.93;;;14.20;99.90;;;;;;5078067;28;20515;-79
2022/06/07 02:14:27;;;;;;;5.20;3.80;;;14.10;99.90;;;;;;5078668;28;20472;-80
2022/06/07 02:16:54;;;;;;;6.50;3.83;;;14.10;99.90;;;;;;5078200;28;20451;-80
2022/06/07 02:19:21;;;;;;;5.30;4.47;;;14.10;99.90;;;;;;5078417;28;20484;-79
2022/06/07 02:21:48;;;;;;;5.80;4.00;;;14.00;99.90;;;;;;5078477;28;20524;-79
2022/06/07 02:24:15;;;;;;;5.00;4.50;;;14.10;99.90;;;;;;5077921;28;20481;-79
2022/06/07 02:26:46;;;;;;;5.50;4.40;;;14.10;99.90;;;;;;5078663;28;20464;-79
2022/06/07 02:29:17;;;;;;;5.77;4.40;;;14.00;99.90;;;;;;5078266;28;20482;-82
2022/06/07 02:31:50;;;;;;;5.90;3.80;;;14.00;99.90;;;;;;5078371;28;20465;-80
2022/06/07 02:34:18;;;;;;;6.93;3.90;;;14.00;99.90;;;;;;5078082;28;20482;-81
2022/06/07 02:36:48;;;;;;;6.47;3.43;;;14.00;99.90;;;;;;5078485;28;20543;-80
2022/06/07 02:39:16;;;;;;;6.83;3.60;;;13.90;99.90;;;;;;5077424;28;20958;-81
2022/06/07 02:41:43;;;;;;;5.50;4.17;;;13.90;99.90;;;;;;5078230;28;20555;-79
2022/06/07 02:44:10;;;;;;;4.30;3.50;;;13.90;99.90;;;;;;5078507;28;20473;-79
2022/06/07 02:46:38;;;;;;;4.20;3.37;;;13.90;99.90;;;;;;5078777;28;20538;-80
2022/06/07 02:49:05;;;;;;;6.80;3.60;;;13.90;99.90;;;;;;5078423;28;20988;-82
2022/06/07 02:51:32;;;;;;;4.07;3.47;;;13.90;99.90;;;;;;5078095;28;20527;-80
2022/06/07 02:53:59;;;;;;;4.43;3.10;;;13.90;99.90;;;;;;5077242;28;20517;-80
2022/06/07 02:56:25;;;;;;;4.50;3.23;;;13.80;99.90;;;;;;5078003;28;20483;-79
2022/06/07 02:58:52;;;;;;;5.60;3.50;;;13.90;99.90;;;;;;5079021;28;20472;-81
2022/06/07 03:01:19;;;;;;;4.13;2.97;;;13.90;99.90;;;;;;5078986;28;20514;-80
2022/06/07 03:03:48;;;;;;;4.40;2.97;;;13.90;99.90;;;;;;5101627;22;20496;-78
2022/06/07 03:06:14;;;;;;;7.07;2.90;;;14.00;99.90;;;;;;5098381;28;20800;-79
2022/06/07 03:08:41;;;;;;;6.50;3.83;;;14.00;99.90;;;;;;5117731;28;20437;-78
2022/06/07 03:11:09;;;;;;;6.00;2.83;;;14.10;99.90;;;;;;5119550;28;20476;-79
2022/06/07 03:13:36;;;;;;;4.73;2.53;;;14.10;99.90;;;;;;5120365;28;21225;-79
2022/06/07 03:16:03;;;;;;;4.90;2.93;;;14.10;99.90;;;;;;5120376;28;20501;-79
2022/06/07 03:18:30;;;;;;;3.70;2.70;;;14.10;99.90;;;;;;5119940;28;20473;-79
2022/06/07 03:20:58;;;;;;;3.00;2.43;;;14.00;99.90;;;;;;5120340;28;20479;-79
2022/06/07 03:23:25;;;;;;;6.57;3.17;;;14.00;99.90;;;;;;5120942;28;20890;-79
2022/06/07 03:25:52;;;;;;;4.00;2.80;;;14.00;99.90;;;;;;5120302;28;20556;-79
2022/06/07 03:28:19;;;;;;;4.37;2.53;;;13.90;99.90;;;;;;5120824;28;20485;-78
2022/06/07 03:30:46;;;;;;;3.70;2.10;;;14.00;99.90;;;;;;5121047;28;20448;-79
2022/06/07 03:33:13;;;;;;;5.37;2.63;;;14.00;99.90;;;;;;5120370;28;20539;-78
2022/06/07 03:35:40;;;;;;;3.93;2.70;;;14.00;99.90;;;;;;5120865;28;20559;-78
2022/06/07 03:38:08;;;;;;;2.90;2.13;;;14.00;99.90;;;;;;5120949;28;20829;-79
2022/06/07 03:40:45;;;;;;;3.70;2.63;;;14.00;99.90;;;;;;5121208;28;20448;-78
2022/06/07 03:43:15;;;;;;;5.37;2.57;;;14.10;99.90;;;;;;5120957;28;20553;-78
2022/06/07 03:45:42;;;;;;;7.63;2.60;;;14.10;99.90;;;;;;5120771;28;20899;-77
2022/06/07 03:48:15;;;;;;;5.27;2.43;;;14.10;99.90;;;;;;5120715;28;20518;-77
2022/06/07 03:50:41;;;;;;;4.83;2.40;;;14.10;99.90;;;;;;5121346;28;21005;-78
2022/06/07 03:53:11;;;;;;;5.27;2.43;;;14.10;99.90;;;;;;5120561;28;20504;-79
2022/06/07 03:55:42;;;;;;;3.47;2.33;;;14.10;99.90;;;;;;5121433;28;20479;-79
2022/06/07 03:58:15;;;;;;;5.63;2.10;;;14.10;99.90;;;;;;5124979;28;20484;-78
2022/06/07 04:00:48;;;;;;;5.80;2.13;;;14.10;99.90;;;;;;5110318;28;20455;-79
2022/06/07 04:03:15;;;;;;;4.87;2.40;;;14.10;99.90;;;;;;5125087;28;20576;-79
2022/06/07 04:05:43;;;;;;;4.33;2.40;;;14.10;99.90;;;;;;5117115;28;20498;-79
2022/06/07 04:08:12;;;;;;;4.13;2.53;;;14.10;99.90;;;;;;5113403;28;20449;-79
2022/06/07 04:10:44;;;;;;;8.50;2.43;;;14.10;99.90;;;;;;5118466;28;20475;-79
2022/06/07 04:13:11;;;;;;;4.50;2.47;;;14.10;99.90;;;;;;5127586;28;20482;-79
2022/06/07 04:15:38;;;;;;;7.27;2.20;;;14.00;99.90;;;;;;5131865;28;20496;-79
2022/06/07 04:18:05;;;;;;;3.33;2.17;;;14.20;99.90;;;;;;5133395;28;20453;-78
2022/06/07 04:20:32;;;;;;;6.70;1.80;;;14.20;99.90;;;;;;5132473;28;20453;-78
2022/06/07 04:22:58;;;;;;;3.80;2.00;;;14.30;99.90;;;;;;5130335;28;20486;-78
2022/06/07 04:25:27;;;;;;;3.07;2.00;;;14.40;99.90;;;;;;5120740;28;20505;-79
2022/06/07 04:27:54;;;;;;;4.70;2.40;;;14.40;99.90;;;;;;5122807;28;20481;-78
2022/06/07 04:30:22;;;;;;;4.07;2.50;;;14.50;99.90;;;;;;5128845;28;20448;-79
2022/06/07 04:32:49;;;;;;;5.33;2.40;;;14.60;99.90;;;;;;5130764;28;20438;-78
2022/06/07 04:35:18;;;;;;;3.67;2.00;;;14.70;99.90;;;;;;5131774;28;20541;-79
2022/06/07 04:37:45;;;;;;;3.97;2.00;;;14.80;99.90;;;;;;5131941;28;20444;-78
2022/06/07 04:40:13;;;;;;;4.77;2.13;;;15.00;99.90;;;;;;5122489;28;20487;-78
2022/06/07 04:42:43;;;;;;;2.67;1.93;;;15.00;99.90;;;;;;5131096;28;20527;-80
2022/06/07 04:45:13;;;;;;;5.60;2.53;;;15.10;99.90;;;;;;5129874;28;20483;-78
2022/06/07 04:47:41;;;;;;;7.37;1.87;;;15.10;99.90;;;;;;5131358;28;20450;-79
2022/06/07 04:50:10;;;;;;;4.77;2.03;;;15.10;99.90;;;;;;5131585;28;20453;-79
2022/06/07 04:52:37;;;;;;;3.90;2.23;;;15.30;99.90;;;;;;5126304;28;20472;-79
2022/06/07 04:55:05;;;;;;;2.90;2.00;;;15.40;99.90;;;;;;5120810;28;20839;-79
2022/06/07 04:57:32;;;;;;;3.60;1.80;;;15.50;99.90;;;;;;5120999;28;20539;-80
2022/06/07 05:00:00;;;;;;;4.70;2.10;;;15.70;99.90;;;;;;5120641;28;20491;-80
2022/06/07 05:02:27;;;;;;;2.33;1.27;;;15.70;99.90;;;;;;5119935;28;20572;-78
2022/06/07 05:04:54;;;;;;;2.40;1.50;;;15.70;99.90;;;;;;5119568;28;20562;-79
2022/06/07 05:07:21;;;;;;;6.67;1.60;;;15.80;99.90;;;;;;5118756;28;20481;-80
2022/06/07 05:09:48;;;;;;;3.30;1.93;;;15.90;99.90;;;;;;5119604;28;20532;-79
2022/06/07 05:12:15;;;;;;;5.40;1.37;;;16.00;99.90;;;;;;5119458;28;20454;-79
2022/06/07 05:14:43;;;;;;;3.47;1.70;;;16.10;99.90;;;;;;5119850;28;20851;-79
2022/06/07 05:17:12;;;;;;;4.50;1.90;;;16.20;99.90;;;;;;5119202;28;20483;-79
2022/06/07 05:19:39;;;;;;;5.70;1.37;;;16.30;99.90;;;;;;5119708;28;20536;-80
2022/06/07 05:22:06;;;;;;;4.60;1.73;;;16.30;99.90;;;;;;5118901;28;20491;-79
2022/06/07 05:24:34;;;;;;;3.67;1.77;;;16.30;99.90;;;;;;5118821;28;20512;-78
2022/06/07 05:27:04;;;;;;;5.27;1.70;;;16.30;99.90;;;;;;5118601;28;20457;-79
2022/06/07 05:29:39;;;;;;;5.47;1.57;;;16.30;99.90;;;;;;5118364;28;20495;-79
2022/06/07 05:32:07;;;;;;;4.23;1.73;;;16.40;99.90;;;;;;5118552;28;20444;-79
2022/06/07 05:34:36;;;;;;;4.10;1.90;;;16.50;99.90;;;;;;5118916;28;20525;-79
2022/06/07 05:37:03;;;;;;;4.37;1.97;;;16.40;99.90;;;;;;5118909;28;20532;-79
2022/06/07 05:39:31;;;;;;;4.33;1.47;;;16.40;99.90;;;;;;5118515;28;20449;-79
2022/06/07 05:42:00;;;;;;;3.90;1.57;;;16.50;99.90;;;;;;5118296;28;20980;-78
2022/06/07 05:44:28;;;;;;;2.57;1.40;;;16.50;99.90;;;;;;5118593;28;20532;-78
2022/06/07 05:46:55;;;;;;;5.80;1.97;;;16.50;99.90;;;;;;5117674;28;20449;-78
2022/06/07 05:49:22;;;;;;;6.00;1.50;;;16.60;99.90;;;;;;5117652;28;20463;-78
2022/06/07 05:51:50;;;;;;;5.10;1.60;;;16.70;99.90;;;;;;5116404;28;20448;-79
2022/06/07 05:54:17;;;;;;;4.97;1.93;;;16.70;99.90;;;;;;5115224;28;20472;-78
2022/06/07 05:56:44;;;;;;;3.67;1.90;;;16.80;99.90;;;;;;5120846;28;20511;-78
2022/06/07 05:59:11;;;;;;;2.83;1.67;;;16.80;99.90;;;;;;5121246;28;20479;-80
2022/06/07 06:01:38;;;;;;;2.93;1.60;;;16.80;99.90;;;;;;5122774;28;20475;-78
2022/06/07 06:04:07;;;;;;;2.70;1.40;;;16.80;99.90;;;;;;5120357;28;20545;-78
2022/06/07 06:06:34;;;;;;;4.10;1.80;;;16.80;99.90;;;;;;5118998;28;20459;-81
2022/06/07 06:11:47;;;;;;;3.50;1.70;;;16.70;99.90;;;;;;5118389;28;20424;-78
2022/06/07 06:14:14;;;;;;;3.20;1.63;;;16.90;99.90;;;;;;5115537;28;20831;-80
2022/06/07 06:16:41;;;;;;;2.83;1.30;;;16.90;99.90;;;;;;5115151;28;20441;-79
2022/06/07 06:19:08;;;;;;;5.40;1.50;;;16.90;99.90;;;;;;5115434;28;20933;-80
2022/06/07 06:21:38;;;;;;;6.80;2.60;;;17.00;99.90;;;;;;5114953;28;21016;-79
2022/06/07 06:24:09;;;;;;;4.27;1.80;;;17.00;99.90;;;;;;5114615;28;20472;-78
2022/06/07 06:26:37;;;;;;;4.60;2.10;;;17.00;99.90;;;;;;5114983;28;20498;-80
2022/06/07 06:29:05;;;;;;;3.73;1.87;;;16.90;99.90;;;;;;5114895;28;20859;-79
2022/06/07 06:31:32;;;;;;;5.40;1.40;;;17.10;99.90;;;;;;5114566;28;20449;-77
2022/06/07 06:33:59;;;;;;;4.73;1.90;;;17.20;99.90;;;;;;5112856;28;20575;-78
2022/06/07 06:36:28;;;;;;;5.30;2.10;;;17.40;99.90;;;;;;5113598;28;20538;-78
2022/06/07 06:38:55;;;;;;;4.13;1.57;;;17.40;99.90;;;;;;5113586;28;20535;-80
2022/06/07 06:41:25;;;;;;;4.60;1.73;;;17.30;99.90;;;;;;5114305;28;20455;-78
2022/06/07 06:43:53;;;;;;;3.60;1.50;;;17.20;99.90;;;;;;5114217;28;20568;-78
2022/06/07 06:46:23;;;;;;;5.23;1.90;;;17.20;99.90;;;;;;5118033;28;20528;-79
2022/06/07 06:48:51;;;;;;;4.10;1.57;;;17.10;99.90;;;;;;5117449;28;20437;-78
2022/06/07 06:51:24;;;;;;;4.33;2.00;;;17.10;99.90;;;;;;5117258;28;20527;-78
2022/06/07 06:53:56;;;;;;;3.83;1.60;;;17.20;99.90;;;;;;5117606;28;20562;-79
2022/06/07 06:56:30;;;;;;;7.00;2.17;;;17.30;99.90;;;;;;5117542;28;20522;-79
2022/06/07 06:58:57;;;;;;;3.03;1.67;;;17.30;99.90;;;;;;5117457;28;20831;-79
2022/06/07 07:01:27;;;;;;;4.23;1.60;;;17.40;99.90;;;;;;5117623;28;20560;-78
2022/06/07 07:03:54;;;;;;;5.03;1.80;;;17.50;99.90;;;;;;5117034;28;20490;-78
2022/06/07 07:06:22;;;;;;;2.77;1.20;;;17.60;99.90;;;;;;5116813;28;20536;-78
2022/06/07 07:08:49;;;;;;;5.03;1.53;;;17.70;99.90;;;;;;5118896;28;20533;-80
2022/06/07 07:11:20;;;;;;;3.23;1.53;;;17.70;99.90;;;;;;5120342;28;20546;-78
2022/06/07 07:13:50;;;;;;;3.37;1.53;;;17.90;99.90;;;;;;5118129;28;20472;-79
2022/06/07 07:16:18;;;;;;;3.10;1.30;;;17.90;99.90;;;;;;5118371;28;20535;-80
2022/06/07 07:18:46;;;;;;;3.90;1.70;;;18.00;99.90;;;;;;5117472;28;20539;-78
2022/06/07 07:21:15;;;;;;;3.20;1.70;;;18.00;99.90;;;;;;5118181;28;20456;-78
2022/06/07 07:23:43;;;;;;;3.97;1.53;;;18.10;99.90;;;;;;5117061;28;20469;-79
2022/06/07 07:26:13;;;;;;;5.80;1.80;;;18.10;99.90;;;;;;5120148;28;20452;-78
2022/06/07 07:28:42;;;;;;;3.80;1.40;;;18.10;99.90;;;;;;5116809;28;20508;-79
2022/06/07 07:31:14;;;;;;;3.47;1.30;;;18.20;99.90;;;;;;5116071;28;20521;-77
2022/06/07 07:33:41;;;;;;;4.27;1.73;;;18.30;99.90;;;;;;5115360;28;20445;-78
2022/06/07 07:36:09;;;;;;;2.90;1.50;;;18.40;99.90;;;;;;5115439;28;20876;-78
2022/06/07 07:38:38;;;;;;;2.30;1.30;;;18.60;99.90;;;;;;5116260;28;20605;-77
2022/06/07 07:41:20;;;;;;;4.20;2.20;;;18.80;99.90;;;;;;5117855;28;20446;-79
2022/06/07 07:43:48;;;;;;;3.47;2.00;;;18.80;99.90;;;;;;5117166;28;20529;-78
2022/06/07 07:46:18;;;;;;;3.80;1.90;;;18.80;99.90;;;;;;5117326;28;20481;-79
2022/06/07 07:48:45;;;;;;;5.73;2.53;;;18.90;99.90;;;;;;5112300;28;20457;-78
2022/06/07 07:51:18;;;;;;;3.63;2.67;;;19.10;99.90;;;;;;5118215;28;20455;-78
2022/06/07 07:53:45;;;;;;;3.03;1.70;;;19.30;99.90;;;;;;5117519;28;20457;-78
2022/06/07 07:56:12;;;;;;;3.87;1.80;;;19.50;99.90;;;;;;5117719;28;20458;-77
2022/06/07 07:58:39;;;;;;;3.60;1.70;;;19.60;99.90;;;;;;5113546;28;20460;-76
2022/06/07 08:01:11;;;;;;;4.73;2.17;;;19.70;99.90;;;;;;5097324;28;21006;-78
2022/06/07 08:03:39;;;;;;;6.53;2.07;;;19.60;99.90;;;;;;5097639;28;20576;-79
2022/06/07 08:06:07;;;;;;;3.30;1.57;;;19.60;99.90;;;;;;5096709;28;20463;-77
2022/06/07 08:08:34;;;;;;;5.90;1.77;;;19.60;99.90;;;;;;5097665;28;20845;-78
2022/06/07 08:11:01;;;;;;;3.53;1.50;;;19.70;99.90;;;;;;5096984;28;21012;-80
2022/06/07 08:13:29;;;;;;;2.83;1.53;;;19.90;99.90;;;;;;5096643;28;20985;-79
2022/06/07 08:15:56;;;;;;;2.70;1.80;;;20.00;99.90;;;;;;5096881;28;20461;-78
2022/06/07 08:18:24;;;;;;;3.43;2.03;;;20.20;99.90;;;;;;5098406;28;20457;-78
2022/06/07 08:20:57;;;;;;;3.40;1.40;;;20.40;99.90;;;;;;5097655;28;20841;-78
2022/06/07 08:23:24;;;;;;;3.43;1.63;;;20.60;99.90;;;;;;5096139;28;20579;-78
2022/06/07 08:25:51;;;;;;;3.77;1.97;;;20.70;99.90;;;;;;5097087;28;20475;-79
2022/06/07 08:28:18;;;;;;;4.60;2.00;;;20.60;99.90;;;;;;5097485;28;20445;-80
2022/06/07 08:30:46;;;;;;;3.10;1.60;;;20.50;99.90;;;;;;5097170;28;20449;-79
2022/06/07 08:38:45;;;;;;;2.90;1.53;;;20.60;99.90;;;;;;5098561;28;20437;-79
2022/06/07 08:41:21;;;;;;;6.93;1.40;;;20.80;99.90;;;;;;5097600;28;20450;-79
2022/06/07 08:43:48;;;;;;;3.50;1.17;;;21.20;99.90;;;;;;5096012;28;20564;-79
2022/06/07 08:46:19;;;;;;;4.67;1.63;;;21.40;99.90;;;;;;5096121;28;20452;-78
2022/06/07 08:48:47;;;;;;;3.03;1.30;;;21.70;99.90;;;;;;5096262;28;20487;-79
2022/06/07 08:51:22;;;;;;;4.10;1.53;;;22.00;99.90;;;;;;5098575;28;20930;-81
2022/06/07 08:53:53;;;;;;;5.63;1.67;;;22.20;99.90;;;;;;5098181;28;20442;-79
2022/06/07 08:56:24;;;;;;;2.63;1.20;;;22.50;99.90;;;;;;5098076;28;20473;-79
2022/06/07 08:58:53;;;;;;;4.63;1.20;;;22.60;99.90;;;;;;5097993;28;20477;-79
2022/06/07 09:01:29;;;;;;;3.60;1.70;;;23.00;99.90;;;;;;5098610;28;20525;-80
2022/06/07 09:04:07;;;;;;;3.10;1.20;;;22.90;99.90;;;;;;5098084;28;20492;-80
2022/06/07 09:06:39;;;;;;;3.17;1.20;;;23.30;99.90;;;;;;5121989;22;21015;-81
2022/06/07 09:09:08;;;;;;;2.63;1.17;;;23.60;99.90;;;;;;5111278;28;20439;-82
2022/06/07 09:14:29;;;;;;;3.87;1.33;;;23.80;99.90;;;;;;5121125;28;20455;-81
2022/06/07 09:16:57;;;;;;;3.57;1.43;;;23.90;99.90;;;;;;5121212;28;20568;-81
2022/06/07 09:19:27;;;;;;;3.23;1.50;;;24.10;99.90;;;;;;5120842;28;20429;-82
2022/06/07 09:21:59;;;;;;;3.73;1.83;;;23.80;99.90;;;;;;5115836;28;20473;-81
2022/06/07 09:24:31;;;;;;;3.73;2.23;;;23.50;99.90;;;;;;5101793;28;20481;-82
2022/06/07 09:27:07;;;;;;;4.07;1.70;;;22.90;99.90;;;;;;5090128;28;20466;-81
2022/06/07 09:29:39;;;;;;;4.43;1.93;;;23.00;99.90;;;;;;5092984;28;20916;-81
2022/06/07 09:32:11;;;;;;;3.40;1.63;;;23.20;99.90;;;;;;5097755;28;20450;-82
2022/06/07 09:34:50;;;;;;;4.13;3.13;;;23.60;99.90;;;;;;5120116;28;20449;-82
2022/06/07 09:37:24;;;;;;;4.73;1.40;;;23.70;99.90;;;;;;5120241;28;20477;-80
2022/06/07 09:39:59;;;;;;;2.77;1.40;;;23.40;99.90;;;;;;5119767;28;20502;-81
2022/06/07 09:42:28;;;;;;;2.37;1.40;;;23.40;99.90;;;;;;5119689;28;20472;-80
2022/06/07 09:44:59;;;;;;;2.67;1.40;;;23.40;99.90;;;;;;5119391;28;20485;-80
2022/06/07 09:47:28;;;;;;;3.53;1.47;;;23.10;99.90;;;;;;5118789;28;20511;-81
2022/06/07 09:49:59;;;;;;;3.00;1.57;;;22.90;99.90;;;;;;5117414;28;20528;-78
2022/06/07 09:52:31;;;;;;;3.03;1.10;;;22.70;99.90;;;;;;5118162;28;20444;-81
2022/06/07 09:55:03;;;;;;;6.20;1.67;;;22.30;99.90;;;;;;5118104;28;20457;-79
2022/06/07 09:57:36;;;;;;;4.00;1.27;;;22.00;99.90;;;;;;5118598;28;20473;-82
2022/06/07 10:00:18;;;;;;;4.00;1.30;;;21.90;99.90;;;;;;5118325;28;20476;-80
2022/06/07 10:03:18;;;;;;;4.37;1.50;;;21.90;99.90;;;;;;5118429;28;20521;-82
2022/06/07 10:05:54;;;;;;;4.90;2.00;;;21.90;99.90;;;;;;5119319;28;20441;-79
2022/06/07 10:08:36;;;;;;;3.50;1.47;;;21.90;99.90;;;;;;5122595;28;20472;-80
2022/06/07 10:11:09;;;;;;;3.30;1.60;;;22.00;99.90;;;;;;5121316;28;20421;-80
2022/06/07 10:13:49;;;;;;;4.20;1.60;;;22.30;99.90;;;;;;5118832;28;20528;-82
2022/06/07 10:16:23;;;;;;;4.97;1.50;;;22.60;99.90;;;;;;5118898;28;20505;-80
2022/06/07 10:18:59;;;;;;;4.03;1.90;;;23.00;99.90;;;;;;5117896;28;20442;-81
2022/06/07 10:21:53;;;;;;;3.17;1.50;;;22.70;99.90;;;;;;5118035;28;20515;-80
2022/06/07 10:24:33;;;;;;;3.07;1.40;;;22.90;99.90;;;;;;5117500;28;20507;-81
2022/06/07 10:27:12;;;;;;;3.90;1.40;;;22.80;99.90;;;;;;5118233;28;20465;-81
2022/06/07 10:30:09;;;;;;;4.23;1.50;;;22.90;99.90;;;;;;5117574;28;20457;-80
2022/06/07 10:32:46;;;;;;;3.80;1.70;;;22.90;99.90;;;;;;5118844;28;20491;-82
2022/06/07 10:35:22;;;;;;;3.50;1.43;;;23.70;99.90;;;;;;5118617;28;20500;-80
2022/06/07 10:38:00;;;;;;;5.27;1.50;;;24.40;99.90;;;;;;5100517;28;20469;-80
2022/06/07 10:40:38;;;;;;;3.50;1.30;;;24.10;99.90;;;;;;5088242;28;20469;-80
2022/06/07 10:43:16;;;;;;;3.63;1.40;;;24.70;99.90;;;;;;5077507;28;20447;-81
2022/06/07 10:45:44;;;;;;;4.43;1.30;;;25.20;99.90;;;;;;5077729;28;20431;-79
2022/06/07 10:48:18;;;;;;;4.60;1.53;;;25.50;99.90;;;;;;5077606;28;20510;-80
2022/06/07 10:50:52;;;;;;;4.40;1.30;;;25.50;99.90;;;;;;5077208;28;20447;-82
2022/06/07 10:53:25;;;;;;;3.90;1.27;;;25.50;99.90;;;;;;5077340;28;20442;-80
2022/06/07 10:55:59;;;;;;;3.23;1.20;;;25.50;99.90;;;;;;5078348;28;20448;-81
2022/06/07 10:58:31;;;;;;;4.23;1.50;;;25.20;99.90;;;;;;5077864;28;20431;-81
2022/06/07 11:01:03;;;;;;;2.67;1.10;;;25.00;99.90;;;;;;5077363;28;20442;-82
2022/06/07 11:03:43;;;;;;;5.50;1.43;;;24.90;99.90;;;;;;5077192;28;21185;-81
2022/06/07 11:09:22;;;;;;;3.40;1.33;;;25.70;99.90;;;;;;5078131;28;20502;-82
2022/06/07 11:11:55;;;;;;;4.17;1.70;;;25.40;99.90;;;;;;5077387;28;20942;-82
2022/06/07 11:14:44;;;;;;;2.73;1.13;;;25.10;99.90;;;;;;5078063;28;20446;-80
2022/06/07 11:17:23;;;;;;;3.03;1.30;;;24.90;99.90;;;;;;5077130;28;20474;-80
2022/06/07 11:19:51;;;;;;;3.33;1.40;;;24.40;99.90;;;;;;5077930;28;20523;-81
2022/06/07 11:22:20;;;;;;;3.73;1.40;;;24.40;99.90;;;;;;5077265;28;20896;-80
2022/06/07 11:24:56;;;;;;;4.60;1.47;;;24.30;99.90;;;;;;5077013;28;20577;-81
2022/06/07 11:27:26;;;;;;;4.00;2.07;;;24.50;99.90;;;;;;5076809;28;20479;-81
2022/06/07 11:30:22;;;;;;;2.90;1.50;;;24.70;99.90;;;;;;5077435;28;20455;-81
2022/06/07 11:32:55;;;;;;;5.80;1.40;;;24.90;99.90;;;;;;5079289;28;20442;-80
2022/06/07 11:35:45;;;;;;;4.33;1.60;;;24.80;99.90;;;;;;5078239;28;20834;-81
2022/06/07 11:38:24;;;;;;;3.43;1.17;;;24.60;99.90;;;;;;5079742;28;20891;-81
2022/06/07 11:41:36;;;;;;;3.40;1.47;;;24.70;99.90;;;;;;5079003;28;20465;-80
2022/06/07 11:43:56;;;;;;;4.67;1.50;;;24.60;99.90;;;;;;5078753;28;20478;-79
2022/06/07 11:46:27;;;;;;;4.40;1.33;;;24.30;99.90;;;;;;5078037;28;20527;-80
2022/06/07 11:48:55;;;;;;;3.30;1.40;;;23.90;99.90;;;;;;5078844;28;20494;-79
2022/06/07 11:51:23;;;;;;;3.70;1.23;;;23.50;99.90;;;;;;5082932;28;20450;-81
2022/06/07 11:53:56;;;;;;;3.90;1.07;;;23.40;99.90;;;;;;5081100;28;20893;-81
2022/06/07 11:56:31;;;;;;;3.53;1.20;;;23.40;99.90;;;;;;5080947;28;20498;-82
2022/06/07 11:59:02;;;;;;;3.37;1.30;;;23.60;99.90;;;;;;5080681;28;20573;-81
2022/06/07 12:01:42;;;;;;;2.63;1.20;;;23.70;99.90;;;;;;5083798;28;20450;-79
2022/06/07 12:04:34;;;;;;;2.20;1.57;;;23.70;99.90;;;;;;5100112;28;20511;-81
2022/06/07 12:07:08;;;;;;;3.30;1.23;;;23.70;99.90;;;;;;5099586;28;20524;-82
2022/06/07 12:09:36;;;;;;;3.30;1.33;;;23.80;99.90;;;;;;5122810;28;20473;-83
2022/06/07 12:12:20;;;;;;;3.63;1.20;;;23.60;99.90;;;;;;5123366;28;20441;-79
2022/06/07 12:14:52;;;;;;;2.63;1.40;;;23.50;99.90;;;;;;5123153;28;20433;-79
2022/06/07 12:17:24;;;;;;;2.90;1.30;;;23.70;99.90;;;;;;5126278;28;20503;-81
2022/06/07 12:19:52;;;;;;;3.40;1.43;;;23.50;99.90;;;;;;5123017;28;20445;-80
2022/06/07 12:22:21;;;;;;;2.80;1.33;;;23.50;99.90;;;;;;5122605;28;20469;-80
2022/06/07 12:24:53;;;;;;;4.40;1.47;;;23.60;99.90;;;;;;5121502;28;20560;-79
2022/06/07 12:27:24;;;;;;;4.27;1.50;;;23.40;99.90;;;;;;5120976;28;20494;-80
2022/06/07 12:29:55;;;;;;;2.73;1.33;;;23.40;99.90;;;;;;5122421;28;20417;-79
2022/06/07 12:32:26;;;;;;;2.77;1.00;;;23.30;99.90;;;;;;5122996;28;20453;-79
2022/06/07 12:35:14;;;;;;;2.00;1.00;;;23.30;99.90;;;;;;5122210;28;20495;-80
2022/06/07 12:37:41;;;;;;;2.10;1.00;;;23.20;99.90;;;;;;5122468;28;20465;-82
2022/06/07 12:40:31;;;;;;;4.00;1.00;;;23.10;99.90;;;;;;5123585;28;20449;-79
2022/06/07 12:42:58;;;;;;;2.90;1.40;;;23.00;99.90;;;;;;5123306;28;20444;-78
2022/06/07 12:45:32;;;;;;;3.47;1.37;;;22.90;99.90;;;;;;5120547;28;20520;-80
2022/06/07 12:48:07;;;;;;;4.53;2.03;;;22.80;99.90;;;;;;5123001;28;20492;-81
2022/06/07 12:50:37;;;;;;;2.73;1.40;;;22.80;99.90;;;;;;5118383;28;20924;-79
2022/06/07 12:53:05;;;;;;;4.03;1.30;;;22.80;99.90;;;;;;5118492;28;20432;-77
2022/06/07 12:55:36;;;;;;;4.47;2.10;;;22.80;99.90;;;;;;5117324;28;20532;-79
2022/06/07 12:58:07;;;;;;;2.90;1.43;;;22.90;99.90;;;;;;5116618;28;20460;-77
2022/06/07 13:00:43;;;;;;;2.00;0.90;;;22.90;99.90;;;;;;5116932;28;20433;-80
2022/06/07 13:03:23;;;;;;;2.70;1.30;;;22.80;99.90;;;;;;5117623;28;20469;-80
2022/06/07 13:05:57;;;;;;;2.33;1.27;;;22.50;99.90;;;;;;5116316;28;20835;-77
2022/06/07 13:08:27;;;;;;;5.30;1.20;;;22.20;99.90;;;;;;5115822;28;20819;-77
2022/06/07 13:10:54;;;;;;;2.47;0.93;;;22.00;99.90;;;;;;5115875;28;20445;-80
2022/06/07 13:13:25;;;;;;;2.20;1.20;;;21.90;99.90;;;;;;5116291;28;20476;-79
2022/06/07 13:15:58;;;;;;;2.70;1.00;;;21.80;99.90;;;;;;5116314;28;20429;-77
2022/06/07 13:18:28;;;;;;;3.00;1.00;;;21.60;99.90;;;;;;5116268;28;20480;-79
2022/06/07 13:21:13;;;;;;;2.40;1.40;;;21.50;99.90;;;;;;5116563;28;20445;-78
2022/06/07 13:23:43;;;;;;;2.80;1.10;;;21.30;99.90;;;;;;5115679;28;20451;-78